Time;durP1;ratioP1;P1;durP2;ratioP2;P2;SDS_P1;SDS_P2;PMS_P1;PMS_P2;Temp;Humidity;BMP_temperature;BMP_pressure;BME280_temperature;BME280_humidity;BME280_pressure;Samples;Min_cycle;Max_cycle;Signal;HPM_P1;HPM_P2
2023/08/07 00:00:13;;;;;;;0.10;0.10;;;;;;;13.64;89.79;96515.88;5013023;28;20517;-70
2023/08/07 00:02:42;;;;;;;0.10;0.10;;;;;;;13.68;88.96;96527.75;5012057;28;20141;-70
2023/08/07 00:05:09;;;;;;;0.10;0.10;;;;;;;13.69;89.05;96524.03;5005686;28;20038;-70
2023/08/07 00:07:37;;;;;;;0.13;0.13;;;;;;;13.67;89.16;96518.09;5014705;28;20065;-71
2023/08/07 00:10:06;;;;;;;0.17;0.17;;;;;;;13.68;89.10;96525.91;5013238;28;20056;-71
2023/08/07 00:12:34;;;;;;;0.10;0.10;;;;;;;13.73;89.09;96520.59;5012780;28;20044;-70
2023/08/07 00:15:02;;;;;;;0.10;0.10;;;;;;;13.66;89.33;96527.19;5004571;28;20511;-73
2023/08/07 00:17:30;;;;;;;0.10;0.10;;;;;;;13.61;89.13;96530.56;5011946;28;20052;-71
2023/08/07 00:19:59;;;;;;;0.20;0.20;;;;;;;13.57;89.12;96526.75;5011128;28;20053;-71
2023/08/07 00:22:27;;;;;;;0.10;0.10;;;;;;;13.59;89.62;96524.66;5011779;28;20045;-71
2023/08/07 00:24:54;;;;;;;0.20;0.20;;;;;;;13.64;89.70;96537.34;5011893;28;20100;-71
2023/08/07 00:27:22;;;;;;;0.20;0.20;;;;;;;13.64;89.90;96529.28;5011494;28;20683;-71
2023/08/07 00:29:51;;;;;;;0.08;0.08;;;;;;;13.65;89.92;96536.28;5012269;28;20084;-72
2023/08/07 00:32:19;;;;;;;0.20;0.20;;;;;;;13.63;89.74;96535.69;5006852;28;20069;-71
2023/08/07 00:34:46;;;;;;;0.10;0.10;;;;;;;13.67;89.46;96545.72;5003485;28;20045;-71
2023/08/07 00:37:15;;;;;;;0.10;0.10;;;;;;;13.61;89.08;96538.63;5016894;28;20537;-71
2023/08/07 00:39:43;;;;;;;0.20;0.20;;;;;;;13.66;89.28;96548.63;5012087;28;20479;-71
2023/08/07 00:42:12;;;;;;;0.20;0.20;;;;;;;13.65;89.66;96545.13;5011568;28;20038;-71
2023/08/07 00:44:40;;;;;;;0.10;0.10;;;;;;;13.66;89.36;96545.97;5011522;28;20494;-71
2023/08/07 00:47:07;;;;;;;0.10;0.10;;;;;;;13.70;89.91;96545.25;5010275;28;20045;-71
2023/08/07 00:49:36;;;;;;;0.10;0.10;;;;;;;13.78;89.20;96541.34;5007381;28;20135;-71
2023/08/07 00:52:04;;;;;;;0.20;0.20;;;;;;;13.78;89.42;96555.59;5010234;28;20048;-71
2023/08/07 00:54:33;;;;;;;0.20;0.20;;;;;;;13.50;90.40;96548.34;5011091;28;20038;-71
2023/08/07 00:57:06;;;;;;;0.10;0.10;;;;;;;13.54;90.73;96541.44;5026981;28;20054;-71
2023/08/07 00:59:34;;;;;;;0.10;0.10;;;;;;;13.54;89.34;96540.63;5011159;28;20042;-71
2023/08/07 01:02:02;;;;;;;0.10;0.10;;;;;;;13.58;89.82;96547.97;5010363;28;20133;-71
2023/08/07 01:04:30;;;;;;;0.10;0.10;;;;;;;13.53;89.36;96539.81;5015363;28;20125;-71
2023/08/07 01:06:57;;;;;;;0.17;0.17;;;;;;;13.58;89.47;96550.66;5006789;28;20072;-71
2023/08/07 01:09:26;;;;;;;0.15;0.15;;;;;;;13.56;89.32;96555.44;4999505;28;20153;-70
2023/08/07 01:11:59;;;;;;;0.10;0.10;;;;;;;13.64;88.96;96540.81;5011425;28;20061;-70
2023/08/07 01:14:30;;;;;;;0.15;0.15;;;;;;;13.68;88.68;96542.00;5039327;22;20033;-72
2023/08/07 01:17:01;;;;;;;0.20;0.20;;;;;;;13.71;88.98;96548.72;5024906;28;20054;-72
2023/08/07 01:19:31;;;;;;;0.10;0.10;;;;;;;13.83;87.84;96541.44;5031101;28;20077;-73
2023/08/07 01:22:07;;;;;;;0.20;0.20;;;;;;;13.72;88.78;96542.28;5028937;28;20049;-73
2023/08/07 01:24:35;;;;;;;0.10;0.10;;;;;;;13.62;87.28;96542.94;5029772;28;20149;-73
2023/08/07 01:27:11;;;;;;;0.43;0.43;;;;;;;13.52;88.04;96540.06;5029993;28;20421;-72
2023/08/07 01:29:45;;;;;;;0.10;0.10;;;;;;;13.44;88.80;96535.09;5029874;28;20068;-72
2023/08/07 01:32:16;;;;;;;0.10;0.10;;;;;;;13.48;89.26;96538.94;5028338;28;20049;-72
2023/08/07 01:34:44;;;;;;;0.10;0.10;;;;;;;13.54;88.98;96540.63;5030883;28;20037;-72
2023/08/07 01:37:14;;;;;;;0.10;0.10;;;;;;;13.61;88.75;96538.63;5038633;28;20417;-72
2023/08/07 01:39:42;;;;;;;0.10;0.10;;;;;;;13.51;89.21;96547.28;5029584;28;20041;-73
2023/08/07 01:42:10;;;;;;;0.10;0.10;;;;;;;13.37;89.51;96537.91;5030820;28;20033;-73
2023/08/07 01:44:38;;;;;;;0.10;0.10;;;;;;;13.46;89.46;96536.47;5029181;28;20128;-73
2023/08/07 01:47:06;;;;;;;0.20;0.20;;;;;;;13.43;89.52;96538.81;5031044;28;20042;-72
2023/08/07 01:49:34;;;;;;;0.03;0.03;;;;;;;13.47;88.90;96535.44;5030700;28;20064;-73
2023/08/07 01:52:02;;;;;;;0.17;0.17;;;;;;;13.50;89.11;96534.94;5025357;28;20091;-72
2023/08/07 01:54:31;;;;;;;0.10;0.10;;;;;;;13.51;89.88;96535.75;5025273;28;20096;-72
2023/08/07 01:56:58;;;;;;;0.10;0.10;;;;;;;13.53;89.28;96544.38;5029706;28;20169;-72
2023/08/07 01:59:26;;;;;;;0.10;0.10;;;;;;;13.60;88.91;96545.03;5045412;28;20075;-74
2023/08/07 02:01:54;;;;;;;0.13;0.13;;;;;;;13.62;88.37;96548.28;5022132;28;20449;-73
2023/08/07 02:04:22;;;;;;;0.10;0.10;;;;;;;13.47;88.64;96540.78;5028730;28;20718;-73
2023/08/07 02:06:49;;;;;;;0.13;0.13;;;;;;;13.47;88.97;96545.34;5029571;28;20042;-72
2023/08/07 02:09:17;;;;;;;0.50;0.50;;;;;;;13.43;88.86;96542.31;5030436;28;20402;-72
2023/08/07 02:11:46;;;;;;;0.10;0.10;;;;;;;13.52;88.84;96551.59;5031182;28;20038;-72
2023/08/07 02:14:13;;;;;;;0.20;0.20;;;;;;;13.48;88.76;96544.28;5023127;28;20076;-72
2023/08/07 02:16:41;;;;;;;0.20;0.20;;;;;;;13.44;88.55;96549.28;5038254;28;20069;-72
2023/08/07 02:19:09;;;;;;;0.20;0.20;;;;;;;13.40;89.13;96555.34;5029115;28;20132;-72
2023/08/07 02:21:37;;;;;;;0.20;0.20;;;;;;;13.45;88.96;96553.63;5042181;28;20042;-73
2023/08/07 02:24:05;;;;;;;0.15;0.15;;;;;;;13.41;89.55;96547.09;5029283;28;20056;-72
2023/08/07 02:26:33;;;;;;;0.10;0.10;;;;;;;13.33;88.96;96543.97;5032392;28;20136;-72
2023/08/07 02:29:03;;;;;;;0.20;0.20;;;;;;;13.36;89.52;96560.41;5033559;28;20133;-72
2023/08/07 02:31:32;;;;;;;0.20;0.20;;;;;;;13.33;89.44;96563.56;5031867;28;20076;-72
2023/08/07 02:34:00;;;;;;;0.20;0.20;;;;;;;13.35;89.99;96568.69;5031749;28;20045;-72
2023/08/07 02:36:27;;;;;;;0.13;0.13;;;;;;;13.40;89.67;96566.91;5038192;28;20047;-73
2023/08/07 02:38:55;;;;;;;0.10;0.10;;;;;;;13.38;89.28;96560.97;5033252;28;20046;-73
2023/08/07 02:41:23;;;;;;;0.13;0.13;;;;;;;13.28;89.92;96551.94;5030271;28;20041;-72
2023/08/07 02:43:51;;;;;;;0.10;0.10;;;;;;;13.38;89.56;96563.66;5020752;28;20077;-72
2023/08/07 02:46:20;;;;;;;0.20;0.20;;;;;;;13.20;90.29;96566.47;5031930;28;20041;-72
2023/08/07 02:48:47;;;;;;;0.13;0.13;;;;;;;13.20;90.56;96567.31;5033790;28;20042;-72
2023/08/07 02:51:16;;;;;;;0.15;0.15;;;;;;;13.26;90.33;96564.75;5019600;28;20042;-71
2023/08/07 02:53:44;;;;;;;0.10;0.10;;;;;;;13.28;90.20;96565.31;5023097;28;20133;-72
2023/08/07 02:56:11;;;;;;;0.10;0.10;;;;;;;13.35;89.85;96574.84;5026239;28;20041;-73
2023/08/07 02:58:39;;;;;;;0.13;0.13;;;;;;;13.25;90.29;96577.31;5031826;28;20132;-74
2023/08/07 03:01:07;;;;;;;0.15;0.15;;;;;;;13.24;90.35;96578.38;5032735;28;20163;-74
2023/08/07 03:03:36;;;;;;;0.15;0.15;;;;;;;13.26;90.23;96581.63;5039834;28;20111;-74
2023/08/07 03:06:04;;;;;;;0.10;0.10;;;;;;;13.29;89.60;96575.00;5031353;28;20045;-73
2023/08/07 03:08:32;;;;;;;0.10;0.10;;;;;;;13.33;89.65;96579.63;5033430;28;20045;-74
2023/08/07 03:11:00;;;;;;;0.10;0.10;;;;;;;13.40;89.83;96585.66;5032210;28;20589;-74
2023/08/07 03:13:28;;;;;;;0.15;0.15;;;;;;;13.46;88.89;96589.28;5031629;28;20112;-72
2023/08/07 03:16:02;;;;;;;0.20;0.20;;;;;;;13.39;89.70;96592.06;5031426;28;20084;-74
2023/08/07 03:18:30;;;;;;;0.10;0.10;;;;;;;13.35;89.44;96595.47;5031633;28;20045;-74
2023/08/07 03:20:59;;;;;;;0.10;0.10;;;;;;;13.41;89.60;96594.50;5031503;28;20656;-72
2023/08/07 03:23:28;;;;;;;0.20;0.20;;;;;;;13.40;89.85;96598.25;5030656;28;20072;-72
2023/08/07 03:26:05;;;;;;;0.10;0.10;;;;;;;13.38;89.93;96603.88;5032159;28;20049;-72
2023/08/07 03:28:37;;;;;;;0.00;0.00;;;;;;;13.34;90.02;96597.34;5032281;28;20457;-72
2023/08/07 03:31:05;;;;;;;0.20;0.20;;;;;;;13.30;90.17;96604.22;5028475;28;20119;-72
2023/08/07 03:33:35;;;;;;;0.13;0.13;;;;;;;13.39;89.87;96608.16;5026619;28;20072;-73
2023/08/07 03:36:04;;;;;;;0.22;0.22;;;;;;;13.32;89.59;96606.66;5031683;28;20115;-72
2023/08/07 03:38:33;;;;;;;0.10;0.10;;;;;;;13.08;90.60;96612.03;5028419;28;20041;-72
2023/08/07 03:41:01;;;;;;;0.25;0.25;;;;;;;13.06;90.37;96624.84;5027908;28;20140;-72
2023/08/07 03:43:30;;;;;;;0.20;0.20;;;;;;;13.04;90.36;96634.16;5027626;28;20047;-72
2023/08/07 03:45:58;;;;;;;0.50;0.50;;;;;;;13.12;89.72;96626.59;5026054;28;20590;-74
2023/08/07 03:48:30;;;;;;;0.10;0.10;;;;;;;13.09;88.56;96628.91;5030929;28;20057;-74
2023/08/07 03:51:04;;;;;;;0.20;0.20;;;;;;;13.16;89.28;96635.81;5031159;28;20053;-74
2023/08/07 03:53:37;;;;;;;0.10;0.10;;;;;;;13.12;88.36;96631.94;5030764;28;20136;-75
2023/08/07 03:56:05;;;;;;;0.20;0.20;;;;;;;13.11;88.02;96640.22;5030515;28;20080;-74
2023/08/07 03:58:35;;;;;;;0.20;0.20;;;;;;;13.05;87.95;96633.13;5030921;28;20040;-73
2023/08/07 04:01:03;;;;;;;0.10;0.10;;;;;;;13.10;87.85;96647.44;5031064;28;20049;-74
2023/08/07 04:03:31;;;;;;;0.20;0.20;;;;;;;13.01;87.73;96651.50;5030482;28;20494;-74
2023/08/07 04:06:02;;;;;;;0.20;0.20;;;;;;;13.05;87.31;96657.22;5032517;28;20043;-74
2023/08/07 04:08:31;;;;;;;0.20;0.20;;;;;;;12.99;87.78;96658.16;5024709;28;20068;-74
2023/08/07 04:11:00;;;;;;;0.10;0.10;;;;;;;13.01;87.19;96669.44;5032147;28;20033;-74
2023/08/07 04:13:29;;;;;;;0.10;0.10;;;;;;;12.92;87.25;96663.63;5026952;28;20072;-74
2023/08/07 04:15:56;;;;;;;0.20;0.20;;;;;;;13.05;86.85;96670.63;5022076;28;20042;-73
2023/08/07 04:18:25;;;;;;;0.20;0.20;;;;;;;12.92;86.81;96676.19;5022787;28;20107;-74
2023/08/07 04:20:53;;;;;;;0.10;0.10;;;;;;;12.87;86.95;96668.88;5019272;28;20136;-74
2023/08/07 04:23:21;;;;;;;0.10;0.10;;;;;;;12.81;87.33;96673.28;5028945;28;20128;-71
2023/08/07 04:25:51;;;;;;;0.10;0.10;;;;;;;12.85;87.33;96676.31;5029291;28;20033;-72
2023/08/07 04:28:19;;;;;;;0.10;0.10;;;;;;;12.82;87.68;96682.94;5030378;28;20045;-72
2023/08/07 04:30:50;;;;;;;0.20;0.20;;;;;;;12.83;87.50;96686.44;5031762;28;20037;-74
2023/08/07 04:33:18;;;;;;;0.10;0.10;;;;;;;12.80;86.71;96684.22;5028344;28;20045;-74
2023/08/07 04:35:46;;;;;;;0.32;0.32;;;;;;;12.81;86.86;96692.03;5031103;28;20037;-73
2023/08/07 04:38:14;;;;;;;0.20;0.20;;;;;;;12.90;86.74;96689.00;5027406;28;20046;-74
2023/08/07 04:40:45;;;;;;;0.10;0.10;;;;;;;12.87;86.43;96693.78;5030097;28;20129;-73
2023/08/07 04:43:14;;;;;;;0.10;0.10;;;;;;;12.99;86.56;96701.81;5035202;28;20525;-74
2023/08/07 04:45:44;;;;;;;0.10;0.10;;;;;;;13.02;85.67;96704.03;5029275;28;20136;-72
2023/08/07 04:48:12;;;;;;;0.10;0.10;;;;;;;13.05;85.12;96703.59;5025823;28;20490;-74
2023/08/07 04:50:40;;;;;;;0.10;0.10;;;;;;;12.89;86.64;96704.25;5022465;28;20125;-73
2023/08/07 04:53:08;;;;;;;0.30;0.30;;;;;;;12.78;87.14;96708.53;5028242;28;20053;-72
2023/08/07 04:55:36;;;;;;;0.10;0.10;;;;;;;12.87;87.19;96712.53;5025729;28;20041;-74
2023/08/07 04:58:03;;;;;;;0.10;0.10;;;;;;;12.85;87.46;96714.63;5030871;28;20050;-69
2023/08/07 05:00:32;;;;;;;0.20;0.20;;;;;;;12.92;87.02;96721.72;5028193;28;20037;-73
2023/08/07 05:03:01;;;;;;;0.40;0.40;;;;;;;13.09;85.88;96715.47;5022794;28;20303;-71
2023/08/07 05:05:32;;;;;;;0.15;0.15;;;;;;;13.01;86.03;96725.72;5022711;28;20049;-73
2023/08/07 05:08:02;;;;;;;0.10;0.10;;;;;;;13.04;85.78;96718.03;5030643;28;20124;-75
2023/08/07 05:10:30;;;;;;;0.10;0.10;;;;;;;13.11;85.47;96712.56;5031538;28;20049;-75
2023/08/07 05:12:57;;;;;;;0.10;0.10;;;;;;;13.05;85.88;96711.63;5031038;28;20124;-74
2023/08/07 05:15:28;;;;;;;0.20;0.20;;;;;;;13.06;85.67;96715.94;5029641;28;20136;-73
2023/08/07 05:17:57;;;;;;;0.20;0.20;;;;;;;13.01;85.73;96731.88;5030989;28;20041;-73
2023/08/07 05:20:25;;;;;;;0.10;0.10;;;;;;;13.01;86.08;96731.06;5032041;28;20120;-73
2023/08/07 05:22:53;;;;;;;0.13;0.13;;;;;;;13.00;86.21;96732.91;5031319;28;20123;-72
2023/08/07 05:25:21;;;;;;;0.30;0.30;;;;;;;13.03;86.50;96734.34;5030047;28;20489;-74
2023/08/07 05:27:49;;;;;;;0.10;0.10;;;;;;;12.99;85.79;96731.28;5029939;28;20056;-72
2023/08/07 05:30:16;;;;;;;0.20;0.20;;;;;;;12.94;86.40;96735.72;5030448;28;20041;-75
2023/08/07 05:32:44;;;;;;;0.10;0.10;;;;;;;13.04;86.47;96738.66;5033549;28;20121;-75
2023/08/07 05:35:13;;;;;;;0.20;0.20;;;;;;;13.05;85.75;96734.91;5033211;28;20121;-74
2023/08/07 05:37:41;;;;;;;0.10;0.10;;;;;;;13.00;86.31;96737.47;5031139;28;20048;-74
2023/08/07 05:40:11;;;;;;;0.00;0.00;;;;;;;13.04;86.70;96735.97;5031128;28;20418;-72
2023/08/07 05:42:40;;;;;;;0.05;0.05;;;;;;;13.10;86.10;96740.38;5041322;28;20034;-75
2023/08/07 05:45:09;;;;;;;0.15;0.15;;;;;;;13.11;86.49;96752.75;5036969;28;21166;-74
2023/08/07 05:47:37;;;;;;;0.20;0.20;;;;;;;13.13;86.55;96754.16;5032286;28;20387;-75
2023/08/07 05:50:06;;;;;;;0.20;0.20;;;;;;;13.21;85.76;96750.34;5029284;28;20518;-74
2023/08/07 05:52:42;;;;;;;0.10;0.10;;;;;;;13.21;85.93;96751.16;5029230;28;20120;-74
2023/08/07 05:55:10;;;;;;;0.20;0.20;;;;;;;13.23;86.10;96759.78;5020436;28;20068;-74
2023/08/07 05:57:38;;;;;;;0.20;0.20;;;;;;;13.29;85.32;96752.66;5031072;28;20044;-71
2023/08/07 06:00:07;;;;;;;0.10;0.10;;;;;;;13.21;85.24;96761.88;5032082;28;20112;-75
2023/08/07 06:02:41;;;;;;;0.10;0.10;;;;;;;13.29;85.87;96765.28;5029073;28;20499;-75
2023/08/07 06:05:10;;;;;;;0.10;0.10;;;;;;;13.48;85.27;96770.28;5034445;28;20049;-74
2023/08/07 06:07:39;;;;;;;0.20;0.20;;;;;;;13.40;84.65;96767.94;5034989;28;20055;-75
2023/08/07 06:10:08;;;;;;;0.20;0.20;;;;;;;13.33;85.04;96769.91;5034345;28;20055;-75
2023/08/07 06:12:35;;;;;;;0.30;0.30;;;;;;;13.36;84.12;96769.47;5034997;28;20398;-75
2023/08/07 06:15:04;;;;;;;0.10;0.10;;;;;;;13.36;84.40;96777.50;5026323;28;20056;-75
2023/08/07 06:17:31;;;;;;;0.13;0.13;;;;;;;13.37;84.25;96767.59;5030795;28;20041;-74
2023/08/07 06:20:00;;;;;;;0.10;0.10;;;;;;;13.45;84.18;96772.63;5032570;28;20494;-75
2023/08/07 06:22:27;;;;;;;0.30;0.30;;;;;;;13.47;83.82;96774.03;5032358;28;20048;-74
2023/08/07 06:24:56;;;;;;;0.35;0.35;;;;;;;13.45;83.23;96770.75;5031397;28;20056;-73
2023/08/07 06:27:24;;;;;;;0.15;0.15;;;;;;;13.45;83.54;96784.16;5032788;28;20474;-74
2023/08/07 06:29:52;;;;;;;0.10;0.10;;;;;;;13.44;83.95;96785.19;5033722;28;20037;-69
2023/08/07 06:32:19;;;;;;;0.17;0.17;;;;;;;13.53;83.71;96789.16;5034323;28;20037;-72
2023/08/07 06:34:47;;;;;;;0.20;0.20;;;;;;;13.49;83.60;96781.84;5034642;28;20064;-72
2023/08/07 06:37:15;;;;;;;0.20;0.20;;;;;;;13.57;83.26;96792.19;5033587;28;20037;-75
2023/08/07 06:39:42;;;;;;;0.10;0.10;;;;;;;13.69;83.03;96794.88;5033676;28;20123;-75
2023/08/07 06:42:11;;;;;;;0.10;0.10;;;;;;;13.60;83.25;96797.06;5032901;28;20480;-75
2023/08/07 06:44:42;;;;;;;0.20;0.20;;;;;;;13.55;83.59;96792.44;5032725;28;20042;-72
2023/08/07 06:47:10;;;;;;;0.13;0.13;;;;;;;13.66;82.49;96804.22;5034091;28;20466;-75
2023/08/07 06:49:38;;;;;;;0.15;0.15;;;;;;;13.65;82.90;96796.38;5033750;28;20099;-74
2023/08/07 06:52:06;;;;;;;0.10;0.10;;;;;;;13.56;83.83;96807.47;5034686;28;20037;-73
2023/08/07 06:54:34;;;;;;;0.10;0.10;;;;;;;13.57;82.91;96801.06;5041070;28;20043;-71
2023/08/07 06:57:01;;;;;;;0.13;0.13;;;;;;;13.57;81.94;96809.09;5036101;28;20112;-74
2023/08/07 06:59:30;;;;;;;0.30;0.30;;;;;;;13.67;81.65;96799.66;5033757;28;20453;-75
2023/08/07 07:01:58;;;;;;;0.20;0.20;;;;;;;13.72;81.34;96808.63;5033689;28;20049;-75
2023/08/07 07:04:27;;;;;;;0.10;0.10;;;;;;;13.67;81.16;96796.97;5032194;28;20073;-74
2023/08/07 07:06:55;;;;;;;0.20;0.20;;;;;;;13.74;81.46;96808.41;5032113;28;20563;-75
2023/08/07 07:09:23;;;;;;;0.20;0.20;;;;;;;13.80;81.38;96815.53;5024107;28;20042;-74
2023/08/07 07:11:50;;;;;;;0.10;0.10;;;;;;;13.85;81.88;96815.63;5030061;28;20052;-74
2023/08/07 07:14:18;;;;;;;0.20;0.20;;;;;;;13.91;79.99;96828.13;5032030;28;20073;-73
2023/08/07 07:16:48;;;;;;;0.10;0.10;;;;;;;13.91;80.67;96820.06;5033236;28;20042;-73
2023/08/07 07:19:16;;;;;;;0.13;0.13;;;;;;;14.01;80.39;96831.03;5025177;28;20124;-73
2023/08/07 07:21:44;;;;;;;0.10;0.10;;;;;;;14.11;80.05;96835.78;5033429;28;20121;-73
2023/08/07 07:24:11;;;;;;;0.20;0.20;;;;;;;14.16;80.13;96838.56;5032994;28;20133;-73
2023/08/07 07:26:39;;;;;;;0.00;0.00;;;;;;;14.16;79.76;96833.19;5022811;28;20041;-73
2023/08/07 07:29:07;;;;;;;0.20;0.20;;;;;;;14.21;79.44;96830.63;5030785;28;20092;-73
2023/08/07 07:31:35;;;;;;;0.13;0.13;;;;;;;14.21;78.74;96834.13;5033494;28;20039;-72
2023/08/07 07:34:04;;;;;;;0.10;0.10;;;;;;;14.19;79.35;96846.97;5033126;28;20049;-72
2023/08/07 07:36:31;;;;;;;0.10;0.10;;;;;;;14.15;79.57;96847.66;5034145;28;20050;-72
2023/08/07 07:38:59;;;;;;;0.10;0.10;;;;;;;14.12;79.57;96853.53;5031619;28;20049;-72
2023/08/07 07:41:27;;;;;;;0.15;0.15;;;;;;;14.21;79.62;96842.19;5033182;28;20660;-72
2023/08/07 07:43:56;;;;;;;0.20;0.20;;;;;;;14.27;79.30;96853.84;5033571;28;20473;-73
2023/08/07 07:46:24;;;;;;;0.13;0.13;;;;;;;14.35;78.91;96858.84;5035156;28;20125;-72
2023/08/07 07:48:52;;;;;;;0.10;0.10;;;;;;;14.39;78.26;96853.81;5032210;28;20124;-72
2023/08/07 07:51:21;;;;;;;0.20;0.20;;;;;;;14.44;78.76;96845.88;5018576;28;20042;-73
2023/08/07 07:53:48;;;;;;;0.10;0.10;;;;;;;14.45;78.50;96852.91;5024351;28;20112;-73
2023/08/07 07:56:36;;;;;;;0.10;0.10;;;;;;;14.42;77.90;96858.75;5028093;28;20057;-72
2023/08/07 07:59:04;;;;;;;0.10;0.10;;;;;;;14.31;77.23;96855.84;5032010;28;20056;-72
2023/08/07 08:01:35;;;;;;;0.10;0.10;;;;;;;14.26;78.38;96866.44;5032760;28;20065;-73
2023/08/07 08:04:03;;;;;;;0.10;0.10;;;;;;;14.29;78.93;96871.34;5032161;28;20095;-72
2023/08/07 08:06:32;;;;;;;0.40;0.40;;;;;;;14.34;78.28;96881.38;5031906;28;20441;-72
2023/08/07 08:09:04;;;;;;;0.10;0.10;;;;;;;14.29;78.26;96881.28;5032238;28;20144;-72
2023/08/07 08:11:31;;;;;;;0.10;0.10;;;;;;;14.27;78.34;96886.06;5032371;28;20068;-72
2023/08/07 08:13:59;;;;;;;0.10;0.10;;;;;;;14.30;78.03;96893.66;5031977;28;20046;-72
2023/08/07 08:16:27;;;;;;;0.10;0.10;;;;;;;14.32;77.91;96896.91;5031905;28;20037;-72
2023/08/07 08:18:54;;;;;;;0.10;0.10;;;;;;;14.40;77.67;96896.59;5031737;28;20128;-72
2023/08/07 08:21:22;;;;;;;0.10;0.10;;;;;;;14.34;77.56;96905.53;5031958;28;20109;-72
2023/08/07 08:23:51;;;;;;;0.20;0.20;;;;;;;14.34;77.63;96900.97;5031766;28;20039;-72
2023/08/07 08:26:19;;;;;;;0.20;0.20;;;;;;;14.43;77.46;96903.34;5031496;28;20044;-72
2023/08/07 08:28:46;;;;;;;0.10;0.10;;;;;;;14.43;77.48;96906.03;5019276;28;20121;-72
2023/08/07 08:31:14;;;;;;;0.25;0.25;;;;;;;14.44;77.99;96910.31;5023458;28;20088;-72
2023/08/07 08:33:42;;;;;;;0.10;0.10;;;;;;;14.51;77.57;96911.03;5030825;28;20044;-72
2023/08/07 08:36:09;;;;;;;0.47;0.47;;;;;;;14.51;77.89;96913.72;5023687;28;20402;-72
2023/08/07 08:38:37;;;;;;;0.10;0.10;;;;;;;14.47;77.85;96909.88;5027594;28;20487;-71
2023/08/07 08:41:08;;;;;;;0.10;0.10;;;;;;;14.43;77.75;96908.72;5031398;28;20053;-72
2023/08/07 08:43:37;;;;;;;0.10;0.10;;;;;;;14.38;78.05;96909.38;5026336;28;20076;-71
2023/08/07 08:46:05;;;;;;;0.20;0.20;;;;;;;14.32;78.28;96918.41;5030144;28;20041;-72
2023/08/07 08:48:35;;;;;;;0.10;0.10;;;;;;;14.38;77.99;96916.63;5031248;28;20125;-72
2023/08/07 08:51:05;;;;;;;0.20;0.20;;;;;;;14.35;78.09;96925.97;5031875;28;20041;-72
2023/08/07 08:53:33;;;;;;;0.20;0.20;;;;;;;14.40;78.11;96914.56;5031385;28;20075;-71
2023/08/07 08:56:01;;;;;;;0.25;0.25;;;;;;;14.51;77.77;96924.47;5031367;28;20128;-72
2023/08/07 08:58:31;;;;;;;0.15;0.15;;;;;;;14.57;77.31;96923.50;5030757;28;20038;-72
2023/08/07 09:00:59;;;;;;;0.20;0.20;;;;;;;14.69;77.13;96924.31;5031016;28;20123;-71
2023/08/07 09:03:27;;;;;;;0.17;0.17;;;;;;;14.87;76.93;96924.13;5031332;28;20080;-72
2023/08/07 09:05:55;;;;;;;0.10;0.10;;;;;;;14.92;75.50;96912.69;5031203;28;20034;-71
2023/08/07 09:08:23;;;;;;;0.10;0.10;;;;;;;14.97;75.81;96921.66;5030753;28;20067;-71
2023/08/07 09:10:51;;;;;;;0.10;0.10;;;;;;;14.94;74.96;96921.34;5031488;28;20037;-72
2023/08/07 09:13:23;;;;;;;0.10;0.10;;;;;;;15.03;75.78;96931.47;5020538;28;20068;-72
2023/08/07 09:15:56;;;;;;;0.10;0.10;;;;;;;15.07;74.86;96929.91;5024788;28;20510;-73
2023/08/07 09:18:24;;;;;;;0.10;0.10;;;;;;;15.02;75.84;96945.13;5030400;28;20052;-71
2023/08/07 09:20:52;;;;;;;0.20;0.20;;;;;;;15.03;75.01;96930.66;5028241;28;20403;-72
2023/08/07 09:23:20;;;;;;;0.20;0.20;;;;;;;14.93;74.70;96942.00;5031129;28;20037;-72
2023/08/07 09:26:00;;;;;;;0.10;0.10;;;;;;;14.93;75.44;96950.06;5030815;28;20055;-72
2023/08/07 09:28:29;;;;;;;0.10;0.10;;;;;;;14.89;74.57;96940.03;5030885;28;20056;-72
2023/08/07 09:30:59;;;;;;;0.10;0.10;;;;;;;14.86;75.00;96948.56;5029305;28;20103;-72
2023/08/07 09:33:28;;;;;;;0.10;0.10;;;;;;;14.78;75.21;96948.94;5031232;28;20046;-72
2023/08/07 09:35:58;;;;;;;0.10;0.10;;;;;;;14.74;74.88;96945.09;5031043;28;20041;-72
2023/08/07 09:38:29;;;;;;;0.20;0.20;;;;;;;14.64;75.07;96946.50;5030016;28;20051;-72
2023/08/07 09:41:00;;;;;;;0.30;0.30;;;;;;;14.72;75.17;96953.41;5029594;28;20438;-71
2023/08/07 09:43:29;;;;;;;0.10;0.10;;;;;;;14.66;75.34;96957.81;5030849;28;20051;-72
2023/08/07 09:46:04;;;;;;;0.40;0.40;;;;;;;14.79;75.10;96964.00;5029002;28;20407;-71
2023/08/07 09:48:33;;;;;;;0.10;0.10;;;;;;;14.98;74.89;96955.53;5029542;28;20057;-71
2023/08/07 09:51:02;;;;;;;0.10;0.10;;;;;;;15.22;73.73;96956.28;5031915;28;20049;-71
2023/08/07 09:53:31;;;;;;;0.10;0.10;;;;;;;15.28;73.00;96960.69;5031201;28;20042;-71
2023/08/07 09:55:59;;;;;;;0.10;0.10;;;;;;;15.39;73.39;96967.06;5032240;28;20163;-71
2023/08/07 09:58:26;;;;;;;0.10;0.10;;;;;;;15.28;72.29;96958.00;5030046;28;20052;-72
2023/08/07 10:00:55;;;;;;;0.20;0.20;;;;;;;15.17;73.16;96963.41;5031142;28;20073;-71
2023/08/07 10:03:25;;;;;;;0.10;0.10;;;;;;;15.17;73.47;96964.25;5024899;28;20038;-71
2023/08/07 10:05:53;;;;;;;0.10;0.10;;;;;;;15.26;73.53;96962.00;5015372;28;20049;-72
2023/08/07 10:08:22;;;;;;;0.55;0.55;;;;;;;15.27;73.40;96974.38;5028190;28;20516;-74
2023/08/07 10:10:50;;;;;;;0.10;0.10;;;;;;;15.34;72.92;96964.31;5028141;28;20501;-71
2023/08/07 10:13:18;;;;;;;0.10;0.10;;;;;;;15.28;72.25;96979.50;5025958;28;20498;-71
2023/08/07 10:15:52;;;;;;;0.13;0.13;;;;;;;15.26;72.26;96989.69;5031069;28;20053;-74
2023/08/07 10:18:21;;;;;;;0.20;0.20;;;;;;;15.15;72.67;96979.00;5030214;28;20059;-71
2023/08/07 10:20:50;;;;;;;0.10;0.10;;;;;;;15.04;73.01;96986.84;5030595;28;20037;-71
2023/08/07 10:23:18;;;;;;;0.10;0.10;;;;;;;14.84;74.77;96991.00;5030619;28;20053;-71
2023/08/07 10:25:47;;;;;;;0.10;0.10;;;;;;;14.75;75.77;96987.00;5030451;28;20044;-71
2023/08/07 10:28:17;;;;;;;0.20;0.20;;;;;;;14.60;75.80;96982.94;5030035;28;20041;-71
2023/08/07 10:30:45;;;;;;;0.15;0.15;;;;;;;14.62;76.06;96996.97;5030548;28;20037;-71
2023/08/07 10:33:13;;;;;;;0.10;0.10;;;;;;;14.61;76.82;96979.22;5029284;28;20128;-71
2023/08/07 10:35:46;;;;;;;0.10;0.10;;;;;;;14.71;76.97;96985.88;5030474;28;20042;-71
2023/08/07 10:38:15;;;;;;;0.20;0.20;;;;;;;14.87;75.56;96990.50;5023457;28;20048;-71
2023/08/07 10:41:03;;;;;;;0.30;0.30;;;;;;;14.99;74.01;96980.53;5030401;28;20041;-72
2023/08/07 10:43:31;;;;;;;0.05;0.05;;;;;;;15.04;74.37;96992.22;5028427;28;20097;-72
2023/08/07 10:46:06;;;;;;;0.10;0.10;;;;;;;15.23;73.56;96984.00;5033767;28;20041;-71
2023/08/07 10:48:41;;;;;;;0.10;0.10;;;;;;;15.25;72.82;96989.94;5032138;28;20041;-71
2023/08/07 10:51:09;;;;;;;0.10;0.10;;;;;;;15.26;72.52;97000.44;5034198;28;20050;-73
2023/08/07 10:53:43;;;;;;;0.10;0.10;;;;;;;15.11;72.63;97004.72;5034039;28;20510;-72
2023/08/07 10:56:12;;;;;;;0.13;0.13;;;;;;;15.07;72.82;96996.28;5033615;28;20506;-72
2023/08/07 10:58:41;;;;;;;0.20;0.20;;;;;;;14.94;73.70;96993.91;5033617;28;20053;-73
2023/08/07 11:01:20;;;;;;;0.30;0.30;;;;;;;14.69;77.07;97021.84;5034246;28;20067;-72
2023/08/07 11:03:50;;;;;;;0.13;0.13;;;;;;;14.59;77.56;97012.72;5034031;28;20581;-74
2023/08/07 11:06:18;;;;;;;0.10;0.10;;;;;;;14.46;77.98;97008.41;5029930;28;20537;-72
2023/08/07 11:08:48;;;;;;;0.25;0.25;;;;;;;14.50;78.77;97009.59;5033478;28;20038;-74
2023/08/07 11:11:17;;;;;;;0.10;0.10;;;;;;;14.60;78.14;97011.69;5028497;28;20041;-72
2023/08/07 11:13:45;;;;;;;0.10;0.10;;;;;;;14.69;77.81;97010.28;5033102;28;20121;-74
2023/08/07 11:16:13;;;;;;;0.15;0.15;;;;;;;14.78;76.14;97014.22;5033602;28;20438;-75
2023/08/07 11:18:41;;;;;;;0.13;0.13;;;;;;;14.77;75.36;97009.91;5029462;28;20118;-72
2023/08/07 11:21:10;;;;;;;0.10;0.10;;;;;;;14.80;75.23;97005.94;5034222;28;20049;-75
2023/08/07 11:23:38;;;;;;;0.10;0.10;;;;;;;14.88;73.97;97019.81;5033979;28;20049;-74
2023/08/07 11:26:07;;;;;;;0.10;0.10;;;;;;;14.70;75.25;97022.66;5033084;28;20061;-74
2023/08/07 11:28:35;;;;;;;0.10;0.10;;;;;;;14.71;75.59;97028.84;5032127;28;20081;-74
2023/08/07 11:31:02;;;;;;;0.35;0.35;;;;;;;14.74;75.82;97023.84;5032455;28;20116;-74
2023/08/07 11:33:30;;;;;;;0.10;0.10;;;;;;;14.82;75.05;97022.66;5032705;28;20068;-74
2023/08/07 11:35:58;;;;;;;0.15;0.15;;;;;;;14.82;74.62;97025.34;5032874;28;20072;-74
2023/08/07 11:38:33;;;;;;;0.10;0.10;;;;;;;14.84;74.55;97028.59;5029166;28;20041;-74
2023/08/07 11:41:01;;;;;;;0.10;0.10;;;;;;;14.84;74.28;97024.06;5021696;28;20050;-75